Yahata Maru — JL6477 — position and weather

sailwx.info

Track history (hours):
 
Tides and Currents Weather Stations Pressure Air Temp Water Temp Dewpoint Dewpoint Depression Visibility Wind Speed Wind Dir Waves Ship Positions

Yahata Maru

Last reported at 2015-Aug-30 11:09 UTC. Time now 2015-Aug-31 08:56 UTC.
Position N 35°01' E 139°30'.

Length 149 m; draft 4.7 m.

Type: Other ship. MMSI: 431400594.

Date/timePositionNaut miles runAvg speedWind from/ knotsBaromVisibWave heightAir tempDewpointWater temp
2015-Aug-30 11:09N 35°01' E 139°30'6 9.5
2015-Aug-30 10:32N 35°04' E 139°36'8 8.7
2015-Aug-30 09:33N 35°10' E 139°44'8 8.3
2015-Aug-30 08:33N 35°18' E 139°44'9 8.8
2015-Aug-30 07:33N 35°27' E 139°43'1 1.0
2015-Aug-30 06:32N 35°28' E 139°43'0 0.0
2015-Aug-30 05:33N 35°28' E 139°43'0 0.0
2015-Aug-30 04:33N 35°28' E 139°43'0 0.0
2015-Aug-30 03:33N 35°28' E 139°43'0 0.1
2015-Aug-30 02:34N 35°28' E 139°43'7 7.3
2015-Aug-30 01:33N 35°29' E 139°51'10 9.6
2015-Aug-30 00:33N 35°34' E 140°02'4 3.9
2015-Aug-29 23:31N 35°33' E 140°07'0 0.0
2015-Aug-29 22:28N 35°33' E 140°07'0 0.0
2015-Aug-29 21:31N 35°33' E 140°07'0 0.0
2015-Aug-29 20:28N 35°33' E 140°07'0 0.0
2015-Aug-29 19:28N 35°33' E 140°07'0 0.0
2015-Aug-29 18:19N 35°33' E 140°07'0 0.0
2015-Aug-29 17:31N 35°33' E 140°07'0 0.0
2015-Aug-29 16:28N 35°33' E 140°07'0 0.0
2015-Aug-29 15:25N 35°33' E 140°07'0 0.0
2015-Aug-29 14:31N 35°33' E 140°07'0 0.0
2015-Aug-29 13:31N 35°33' E 140°07'0 0.0
2015-Aug-29 12:31N 35°33' E 140°07'0 0.0
2015-Aug-29 11:31N 35°33' E 140°07'0 0.0
2015-Aug-29 10:31N 35°33' E 140°07'0 0.0
2015-Aug-29 09:31N 35°33' E 140°07'0 0.0
2015-Aug-29 08:28N 35°33' E 140°07'3 3.1
2015-Aug-29 07:33N 35°33' E 140°03'1 1.3
2015-Aug-29 06:29N 35°33' E 140°02'0 0.0
2015-Aug-29 05:29N 35°33' E 140°02'0 0.4
2015-Aug-29 04:33N 35°33' E 140°01'9 9.0
2015-Aug-29 03:33N 35°29' E 139°52'7 7.3
2015-Aug-29 02:33N 35°28' E 139°43'0 0.0
2015-Aug-29 01:32N 35°28' E 139°43'0 0.0
2015-Aug-29 00:32N 35°28' E 139°43'0 0.1
2015-Aug-28 23:34N 35°28' E 139°43'6 5.9
2015-Aug-28 22:33N 35°22' E 139°43'0 0.0
2015-Aug-28 21:31N 35°22' E 139°43'0 0.0
2015-Aug-28 20:31N 35°22' E 139°43'0 0.0
2015-Aug-28 19:31N 35°22' E 139°43'0 0.0
2015-Aug-28 18:31N 35°22' E 139°43'2 2.2
2015-Aug-28 17:34N 35°20' E 139°43'9 8.8
2015-Aug-28 16:33N 35°11' E 139°46'  
2015-Aug-24 04:10N 34°36' E 134°52'7 9.8
2015-Aug-24 03:25N 34°37' E 135°01'8 9.1
2015-Aug-24 02:33N 34°36' E 135°11'10 9.5
2015-Aug-24 01:33N 34°36' E 135°22'3 3.0
2015-Aug-24 00:32N 34°35' E 135°26'0 0.0
2015-Aug-23 23:26N 34°35' E 135°26'0 0.0
2015-Aug-23 22:32N 34°35' E 135°26'0 0.0
2015-Aug-23 21:20N 34°35' E 135°26'0 0.0
2015-Aug-23 20:32N 34°35' E 135°26'0 0.0
2015-Aug-23 19:32N 34°35' E 135°26'0 0.0
2015-Aug-23 18:26N 34°35' E 135°26'0 0.0
2015-Aug-23 17:26N 34°35' E 135°26'0 0.0
2015-Aug-23 16:20N 34°35' E 135°26'0 0.0
2015-Aug-23 15:32N 34°35' E 135°26'0 0.0
2015-Aug-23 14:32N 34°35' E 135°26'0 0.0
2015-Aug-23 13:32N 34°35' E 135°26'0 0.0
2015-Aug-23 12:32N 34°35' E 135°26'0 0.0
2015-Aug-23 11:32N 34°35' E 135°26'0 0.0
2015-Aug-23 10:32N 34°35' E 135°26'0 0.0
2015-Aug-23 09:20N 34°35' E 135°26'0 0.0
2015-Aug-23 08:32N 34°35' E 135°26'0 0.0
2015-Aug-23 07:32N 34°35' E 135°26'0 0.0
2015-Aug-23 06:20N 34°35' E 135°26'1 1.8
2015-Aug-23 05:33N 34°36' E 135°24'7 7.1
2015-Aug-23 04:34N 34°41' E 135°19'0 0.2
2015-Aug-23 03:30N 34°41' E 135°19'0 0.0
2015-Aug-23 02:30N 34°41' E 135°19'0 0.0
2015-Aug-23 01:30N 34°41' E 135°19'0 0.0
2015-Aug-23 00:30N 34°41' E 135°19'0 0.0
2015-Aug-22 23:30N 34°41' E 135°19'0 0.0
2015-Aug-22 22:18N 34°41' E 135°19'0 0.0
2015-Aug-22 21:30N 34°41' E 135°19'0 0.0
2015-Aug-22 20:30N 34°41' E 135°19'0 0.0
2015-Aug-22 19:30N 34°41' E 135°19'0 0.0
2015-Aug-22 18:30N 34°41' E 135°19'0 0.1
2015-Aug-22 17:30N 34°41' E 135°19'0 0.1
2015-Aug-22 16:30N 34°41' E 135°19'0 0.0
2015-Aug-22 15:30N 34°41' E 135°19'0 0.0
2015-Aug-22 14:30N 34°41' E 135°19'0 0.0
2015-Aug-22 13:30N 34°41' E 135°19'0 0.1
2015-Aug-22 12:30N 34°41' E 135°19'0 0.0
2015-Aug-22 11:30N 34°41' E 135°19'0 0.0
2015-Aug-22 10:30N 34°41' E 135°19'0 0.0
2015-Aug-22 09:30N 34°41' E 135°19'0 0.1
2015-Aug-22 08:33N 34°41' E 135°19'2 2.0
2015-Aug-22 07:26N 34°43' E 135°21'0 0.0
2015-Aug-22 06:26N 34°43' E 135°21'0 0.0
2015-Aug-22 05:32N 34°43' E 135°21'0 0.0
2015-Aug-22 04:32N 34°43' E 135°21'0 0.0
2015-Aug-22 03:32N 34°43' E 135°21'0 0.0
2015-Aug-22 02:32N 34°43' E 135°21'0 0.0
2015-Aug-22 01:32N 34°43' E 135°21'0 0.0
2015-Aug-22 00:32N 34°43' E 135°21'0 0.0
2015-Aug-21 23:32N 34°43' E 135°21'0 0.0
2015-Aug-21 22:32N 34°43' E 135°21'0 0.0
2015-Aug-21 21:32N 34°43' E 135°21'0 0.0
2015-Aug-21 20:26N 34°43' E 135°21'0 0.0
2015-Aug-21 19:26N 34°43' E 135°21'0 0.0
2015-Aug-21 18:26N 34°43' E 135°21'0 0.0
2015-Aug-21 17:32N 34°43' E 135°21'0 0.0
2015-Aug-21 16:32N 34°43' E 135°21'0 0.0
2015-Aug-21 15:32N 34°43' E 135°21'0 0.0
2015-Aug-21 14:32N 34°43' E 135°21'0 0.2
2015-Aug-21 13:33N 34°43' E 135°21'7 6.6
2015-Aug-21 12:33N 34°36' E 135°22'3 3.3
2015-Aug-21 11:32N 34°35' E 135°26'0 0.0
2015-Aug-21 10:32N 34°35' E 135°26'0 0.0
2015-Aug-21 09:32N 34°35' E 135°26'0 0.0
2015-Aug-21 08:32N 34°35' E 135°26'0 0.0
2015-Aug-21 07:32N 34°35' E 135°26'0 0.0
2015-Aug-21 06:26N 34°35' E 135°26'0 0.0
2015-Aug-21 05:32N 34°35' E 135°26'0 0.0
2015-Aug-21 04:32N 34°35' E 135°26'0 0.0
2015-Aug-21 03:26N 34°35' E 135°26'0 0.0
2015-Aug-21 02:32N 34°35' E 135°26'0 0.0
2015-Aug-21 01:32N 34°35' E 135°26'0 0.0
2015-Aug-21 00:32N 34°35' E 135°26'0 0.1
2015-Aug-20 23:33N 34°35' E 135°26'6 6.0
2015-Aug-20 22:33N 34°35' E 135°18'0 0.0
2015-Aug-20 18:21N 34°35' E 135°18'0 0.0
2015-Aug-20 17:27N 34°35' E 135°18'0 0.0
2015-Aug-20 16:27N 34°35' E 135°18'0 0.4
2015-Aug-20 15:33N 34°35' E 135°18'10 9.7
2015-Aug-20 14:33N 34°28' E 135°10'1010.2
2015-Aug-20 13:33N 34°20' E 135°02'10 9.7
2015-Aug-20 12:33N 34°11' E 134°60'1110.1
2015-Aug-20 11:30N 33°60' E 135°02'  
Track history (hours):
 
Tides and Currents Weather Stations Pressure Air Temp Water Temp Dewpoint Dewpoint Depression Visibility Wind Speed Wind Dir Waves Ship Positions

Yahata Maru

Last reported at 2015-Aug-30 11:09 UTC. Time now 2015-Aug-31 08:56 UTC.
Position N 35°01' E 139°30'.

Length 149 m; draft 4.7 m.

Type: Other ship. MMSI: 431400594.

Date/timePositionNaut miles runAvg speedWind from/ knotsBaromVisibWave heightAir tempDewpointWater temp
2015-Aug-30 11:09N 35°01' E 139°30'6 9.5
2015-Aug-30 10:32N 35°04' E 139°36'8 8.7
2015-Aug-30 09:33N 35°10' E 139°44'8 8.3
2015-Aug-30 08:33N 35°18' E 139°44'9 8.8
2015-Aug-30 07:33N 35°27' E 139°43'1 1.0
2015-Aug-30 06:32N 35°28' E 139°43'0 0.0
2015-Aug-30 05:33N 35°28' E 139°43'0 0.0
2015-Aug-30 04:33N 35°28' E 139°43'0 0.0
2015-Aug-30 03:33N 35°28' E 139°43'0 0.1
2015-Aug-30 02:34N 35°28' E 139°43'7 7.3
2015-Aug-30 01:33N 35°29' E 139°51'10 9.6
2015-Aug-30 00:33N 35°34' E 140°02'4 3.9
2015-Aug-29 23:31N 35°33' E 140°07'0 0.0
2015-Aug-29 22:28N 35°33' E 140°07'0 0.0
2015-Aug-29 21:31N 35°33' E 140°07'0 0.0
2015-Aug-29 20:28N 35°33' E 140°07'0 0.0
2015-Aug-29 19:28N 35°33' E 140°07'0 0.0
2015-Aug-29 18:19N 35°33' E 140°07'0 0.0
2015-Aug-29 17:31N 35°33' E 140°07'0 0.0
2015-Aug-29 16:28N 35°33' E 140°07'0 0.0
2015-Aug-29 15:25N 35°33' E 140°07'0 0.0
2015-Aug-29 14:31N 35°33' E 140°07'0 0.0
2015-Aug-29 13:31N 35°33' E 140°07'0 0.0
2015-Aug-29 12:31N 35°33' E 140°07'0 0.0
2015-Aug-29 11:31N 35°33' E 140°07'0 0.0
2015-Aug-29 10:31N 35°33' E 140°07'0 0.0
2015-Aug-29 09:31N 35°33' E 140°07'0 0.0
2015-Aug-29 08:28N 35°33' E 140°07'3 3.1
2015-Aug-29 07:33N 35°33' E 140°03'1 1.3
2015-Aug-29 06:29N 35°33' E 140°02'0 0.0
2015-Aug-29 05:29N 35°33' E 140°02'0 0.4
2015-Aug-29 04:33N 35°33' E 140°01'9 9.0
2015-Aug-29 03:33N 35°29' E 139°52'7 7.3
2015-Aug-29 02:33N 35°28' E 139°43'0 0.0
2015-Aug-29 01:32N 35°28' E 139°43'0 0.0
2015-Aug-29 00:32N 35°28' E 139°43'0 0.1
2015-Aug-28 23:34N 35°28' E 139°43'6 5.9
2015-Aug-28 22:33N 35°22' E 139°43'0 0.0
2015-Aug-28 21:31N 35°22' E 139°43'0 0.0
2015-Aug-28 20:31N 35°22' E 139°43'0 0.0
2015-Aug-28 19:31N 35°22' E 139°43'0 0.0
2015-Aug-28 18:31N 35°22' E 139°43'2 2.2
2015-Aug-28 17:34N 35°20' E 139°43'9 8.8
2015-Aug-28 16:33N 35°11' E 139°46'  
2015-Aug-24 04:10N 34°36' E 134°52'7 9.8
2015-Aug-24 03:25N 34°37' E 135°01'8 9.1
2015-Aug-24 02:33N 34°36' E 135°11'10 9.5
2015-Aug-24 01:33N 34°36' E 135°22'3 3.0
2015-Aug-24 00:32N 34°35' E 135°26'0 0.0
2015-Aug-23 23:26N 34°35' E 135°26'0 0.0
2015-Aug-23 22:32N 34°35' E 135°26'0 0.0
2015-Aug-23 21:20N 34°35' E 135°26'0 0.0
2015-Aug-23 20:32N 34°35' E 135°26'0 0.0
2015-Aug-23 19:32N 34°35' E 135°26'0 0.0
2015-Aug-23 18:26N 34°35' E 135°26'0 0.0
2015-Aug-23 17:26N 34°35' E 135°26'0 0.0
2015-Aug-23 16:20N 34°35' E 135°26'0 0.0
2015-Aug-23 15:32N 34°35' E 135°26'0 0.0
2015-Aug-23 14:32N 34°35' E 135°26'0 0.0
2015-Aug-23 13:32N 34°35' E 135°26'0 0.0
2015-Aug-23 12:32N 34°35' E 135°26'0 0.0
2015-Aug-23 11:32N 34°35' E 135°26'0 0.0
2015-Aug-23 10:32N 34°35' E 135°26'0 0.0
2015-Aug-23 09:20N 34°35' E 135°26'0 0.0
2015-Aug-23 08:32N 34°35' E 135°26'0 0.0
2015-Aug-23 07:32N 34°35' E 135°26'0 0.0
2015-Aug-23 06:20N 34°35' E 135°26'1 1.8
2015-Aug-23 05:33N 34°36' E 135°24'7 7.1
2015-Aug-23 04:34N 34°41' E 135°19'0 0.2
2015-Aug-23 03:30N 34°41' E 135°19'0 0.0
2015-Aug-23 02:30N 34°41' E 135°19'0 0.0
2015-Aug-23 01:30N 34°41' E 135°19'0 0.0
2015-Aug-23 00:30N 34°41' E 135°19'0 0.0
2015-Aug-22 23:30N 34°41' E 135°19'0 0.0
2015-Aug-22 22:18N 34°41' E 135°19'0 0.0
2015-Aug-22 21:30N 34°41' E 135°19'0 0.0
2015-Aug-22 20:30N 34°41' E 135°19'0 0.0
2015-Aug-22 19:30N 34°41' E 135°19'0 0.0
2015-Aug-22 18:30N 34°41' E 135°19'0 0.1
2015-Aug-22 17:30N 34°41' E 135°19'0 0.1
2015-Aug-22 16:30N 34°41' E 135°19'0 0.0
2015-Aug-22 15:30N 34°41' E 135°19'0 0.0
2015-Aug-22 14:30N 34°41' E 135°19'0 0.0
2015-Aug-22 13:30N 34°41' E 135°19'0 0.1
2015-Aug-22 12:30N 34°41' E 135°19'0 0.0
2015-Aug-22 11:30N 34°41' E 135°19'0 0.0
2015-Aug-22 10:30N 34°41' E 135°19'0 0.0
2015-Aug-22 09:30N 34°41' E 135°19'0 0.1
2015-Aug-22 08:33N 34°41' E 135°19'2 2.0
2015-Aug-22 07:26N 34°43' E 135°21'0 0.0
2015-Aug-22 06:26N 34°43' E 135°21'0 0.0
2015-Aug-22 05:32N 34°43' E 135°21'0 0.0
2015-Aug-22 04:32N 34°43' E 135°21'0 0.0
2015-Aug-22 03:32N 34°43' E 135°21'0 0.0
2015-Aug-22 02:32N 34°43' E 135°21'0 0.0
2015-Aug-22 01:32N 34°43' E 135°21'0 0.0
2015-Aug-22 00:32N 34°43' E 135°21'0 0.0
2015-Aug-21 23:32N 34°43' E 135°21'0 0.0
2015-Aug-21 22:32N 34°43' E 135°21'0 0.0
2015-Aug-21 21:32N 34°43' E 135°21'0 0.0
2015-Aug-21 20:26N 34°43' E 135°21'0 0.0
2015-Aug-21 19:26N 34°43' E 135°21'0 0.0
2015-Aug-21 18:26N 34°43' E 135°21'0 0.0
2015-Aug-21 17:32N 34°43' E 135°21'0 0.0
2015-Aug-21 16:32N 34°43' E 135°21'0 0.0
2015-Aug-21 15:32N 34°43' E 135°21'0 0.0
2015-Aug-21 14:32N 34°43' E 135°21'0 0.2
2015-Aug-21 13:33N 34°43' E 135°21'7 6.6
2015-Aug-21 12:33N 34°36' E 135°22'3 3.3
2015-Aug-21 11:32N 34°35' E 135°26'0 0.0
2015-Aug-21 10:32N 34°35' E 135°26'0 0.0
2015-Aug-21 09:32N 34°35' E 135°26'0 0.0
2015-Aug-21 08:32N 34°35' E 135°26'0 0.0
2015-Aug-21 07:32N 34°35' E 135°26'0 0.0
2015-Aug-21 06:26N 34°35' E 135°26'0 0.0
2015-Aug-21 05:32N 34°35' E 135°26'0 0.0
2015-Aug-21 04:32N 34°35' E 135°26'0 0.0
2015-Aug-21 03:26N 34°35' E 135°26'0 0.0
2015-Aug-21 02:32N 34°35' E 135°26'0 0.0
2015-Aug-21 01:32N 34°35' E 135°26'0 0.0
2015-Aug-21 00:32N 34°35' E 135°26'0 0.1
2015-Aug-20 23:33N 34°35' E 135°26'6 6.0
2015-Aug-20 22:33N 34°35' E 135°18'0 0.0
2015-Aug-20 18:21N 34°35' E 135°18'0 0.0
2015-Aug-20 17:27N 34°35' E 135°18'0 0.0
2015-Aug-20 16:27N 34°35' E 135°18'0 0.4
2015-Aug-20 15:33N 34°35' E 135°18'10 9.7
2015-Aug-20 14:33N 34°28' E 135°10'1010.2
2015-Aug-20 13:33N 34°20' E 135°02'10 9.7
2015-Aug-20 12:33N 34°11' E 134°60'1110.1
2015-Aug-20 11:30N 33°60' E 135°02'  

Dump ship's entire track history